sensor_id;sensor_type;location;lat;lon;timestamp;P1;durP1;ratioP1;P2;durP2;ratioP2
10430;SDS011;5262;59.958;17.726;2022-12-18T00:02:13;15.40;;;10.10;;
10430;SDS011;5262;59.958;17.726;2022-12-18T00:04:39;16.37;;;10.90;;
10430;SDS011;5262;59.958;17.726;2022-12-18T00:07:05;20.60;;;11.13;;
10430;SDS011;5262;59.958;17.726;2022-12-18T00:09:30;18.73;;;11.27;;
10430;SDS011;5262;59.958;17.726;2022-12-18T00:11:56;22.60;;;11.73;;
10430;SDS011;5262;59.958;17.726;2022-12-18T00:14:22;22.83;;;12.50;;
10430;SDS011;5262;59.958;17.726;2022-12-18T00:16:47;21.47;;;11.50;;
10430;SDS011;5262;59.958;17.726;2022-12-18T00:19:13;20.17;;;11.70;;
10430;SDS011;5262;59.958;17.726;2022-12-18T00:21:40;22.60;;;10.23;;
10430;SDS011;5262;59.958;17.726;2022-12-18T00:24:06;21.40;;;11.00;;
10430;SDS011;5262;59.958;17.726;2022-12-18T00:26:33;20.17;;;11.00;;
10430;SDS011;5262;59.958;17.726;2022-12-18T00:29:18;24.30;;;10.20;;
10430;SDS011;5262;59.958;17.726;2022-12-18T00:31:44;21.77;;;10.60;;
10430;SDS011;5262;59.958;17.726;2022-12-18T00:34:11;16.93;;;10.57;;
10430;SDS011;5262;59.958;17.726;2022-12-18T00:36:38;20.00;;;11.97;;
10430;SDS011;5262;59.958;17.726;2022-12-18T00:39:04;21.03;;;10.50;;
10430;SDS011;5262;59.958;17.726;2022-12-18T00:41:30;21.03;;;10.43;;
10430;SDS011;5262;59.958;17.726;2022-12-18T00:44:16;20.57;;;10.93;;
10430;SDS011;5262;59.958;17.726;2022-12-18T00:46:42;20.67;;;11.00;;
10430;SDS011;5262;59.958;17.726;2022-12-18T00:49:09;19.43;;;10.77;;
10430;SDS011;5262;59.958;17.726;2022-12-18T00:51:35;18.67;;;10.53;;
10430;SDS011;5262;59.958;17.726;2022-12-18T00:54:00;16.77;;;9.87;;
10430;SDS011;5262;59.958;17.726;2022-12-18T00:56:26;17.60;;;10.67;;
10430;SDS011;5262;59.958;17.726;2022-12-18T00:58:52;22.60;;;11.17;;
10430;SDS011;5262;59.958;17.726;2022-12-18T01:01:17;20.50;;;10.50;;
10430;SDS011;5262;59.958;17.726;2022-12-18T01:03:43;26.33;;;11.20;;
10430;SDS011;5262;59.958;17.726;2022-12-18T01:06:11;20.07;;;11.47;;
10430;SDS011;5262;59.958;17.726;2022-12-18T01:08:38;18.53;;;10.33;;
10430;SDS011;5262;59.958;17.726;2022-12-18T01:11:08;19.40;;;11.10;;
10430;SDS011;5262;59.958;17.726;2022-12-18T01:13:42;17.63;;;10.70;;
10430;SDS011;5262;59.958;17.726;2022-12-18T01:16:08;23.87;;;10.40;;
10430;SDS011;5262;59.958;17.726;2022-12-18T01:18:37;18.40;;;10.17;;
10430;SDS011;5262;59.958;17.726;2022-12-18T01:21:10;21.93;;;10.40;;
10430;SDS011;5262;59.958;17.726;2022-12-18T01:23:37;21.17;;;11.00;;
10430;SDS011;5262;59.958;17.726;2022-12-18T01:26:15;20.20;;;10.67;;
10430;SDS011;5262;59.958;17.726;2022-12-18T01:28:41;22.17;;;11.07;;
10430;SDS011;5262;59.958;17.726;2022-12-18T01:33:45;17.73;;;10.70;;
10430;SDS011;5262;59.958;17.726;2022-12-18T01:36:18;15.40;;;8.70;;
10430;SDS011;5262;59.958;17.726;2022-12-18T01:38:45;18.30;;;10.50;;
10430;SDS011;5262;59.958;17.726;2022-12-18T01:41:11;18.10;;;10.20;;
10430;SDS011;5262;59.958;17.726;2022-12-18T01:43:41;20.20;;;9.13;;
10430;SDS011;5262;59.958;17.726;2022-12-18T01:46:08;17.27;;;10.40;;
10430;SDS011;5262;59.958;17.726;2022-12-18T01:48:34;19.37;;;10.33;;
10430;SDS011;5262;59.958;17.726;2022-12-18T01:50:59;17.60;;;9.47;;
10430;SDS011;5262;59.958;17.726;2022-12-18T01:53:26;16.80;;;9.37;;
10430;SDS011;5262;59.958;17.726;2022-12-18T01:55:52;20.20;;;9.67;;
10430;SDS011;5262;59.958;17.726;2022-12-18T01:58:27;17.57;;;9.17;;
10430;SDS011;5262;59.958;17.726;2022-12-18T02:01:00;17.67;;;9.83;;
10430;SDS011;5262;59.958;17.726;2022-12-18T02:03:26;18.97;;;10.30;;
10430;SDS011;5262;59.958;17.726;2022-12-18T02:08:41;19.80;;;9.93;;
10430;SDS011;5262;59.958;17.726;2022-12-18T02:14:36;17.73;;;9.50;;
10430;SDS011;5262;59.958;17.726;2022-12-18T02:17:23;14.53;;;8.10;;
10430;SDS011;5262;59.958;17.726;2022-12-18T02:28:11;20.87;;;10.33;;
10430;SDS011;5262;59.958;17.726;2022-12-18T02:30:40;17.53;;;9.80;;
10430;SDS011;5262;59.958;17.726;2022-12-18T02:33:07;17.30;;;9.67;;
10430;SDS011;5262;59.958;17.726;2022-12-18T02:35:36;16.43;;;9.57;;
10430;SDS011;5262;59.958;17.726;2022-12-18T02:38:03;16.30;;;10.10;;
10430;SDS011;5262;59.958;17.726;2022-12-18T02:40:29;21.10;;;10.13;;
10430;SDS011;5262;59.958;17.726;2022-12-18T02:42:55;16.60;;;10.00;;
10430;SDS011;5262;59.958;17.726;2022-12-18T02:45:31;19.80;;;9.93;;
10430;SDS011;5262;59.958;17.726;2022-12-18T02:47:57;16.83;;;9.67;;
10430;SDS011;5262;59.958;17.726;2022-12-18T02:50:26;17.30;;;9.63;;
10430;SDS011;5262;59.958;17.726;2022-12-18T02:53:18;15.20;;;9.30;;
10430;SDS011;5262;59.958;17.726;2022-12-18T02:56:09;17.73;;;10.17;;
10430;SDS011;5262;59.958;17.726;2022-12-18T02:58:47;17.30;;;9.30;;
10430;SDS011;5262;59.958;17.726;2022-12-18T03:01:29;19.80;;;9.20;;
10430;SDS011;5262;59.958;17.726;2022-12-18T03:04:07;14.73;;;9.07;;
10430;SDS011;5262;59.958;17.726;2022-12-18T03:06:54;15.43;;;8.33;;
10430;SDS011;5262;59.958;17.726;2022-12-18T03:09:32;20.70;;;10.43;;
10430;SDS011;5262;59.958;17.726;2022-12-18T03:12:07;16.57;;;9.27;;
10430;SDS011;5262;59.958;17.726;2022-12-18T03:15:12;17.30;;;9.57;;
10430;SDS011;5262;59.958;17.726;2022-12-18T03:18:07;17.57;;;9.97;;
10430;SDS011;5262;59.958;17.726;2022-12-18T03:20:42;15.87;;;8.53;;
10430;SDS011;5262;59.958;17.726;2022-12-18T03:23:11;19.17;;;9.23;;
10430;SDS011;5262;59.958;17.726;2022-12-18T03:25:42;20.07;;;10.90;;
10430;SDS011;5262;59.958;17.726;2022-12-18T03:28:12;18.73;;;9.73;;
10430;SDS011;5262;59.958;17.726;2022-12-18T03:30:41;18.13;;;9.50;;
10430;SDS011;5262;59.958;17.726;2022-12-18T03:33:10;19.87;;;10.00;;
10430;SDS011;5262;59.958;17.726;2022-12-18T03:35:44;18.87;;;9.67;;
10430;SDS011;5262;59.958;17.726;2022-12-18T03:38:11;19.70;;;10.63;;
10430;SDS011;5262;59.958;17.726;2022-12-18T03:43:38;18.13;;;10.20;;
10430;SDS011;5262;59.958;17.726;2022-12-18T03:46:08;15.83;;;9.53;;
10430;SDS011;5262;59.958;17.726;2022-12-18T03:48:43;15.90;;;9.70;;
10430;SDS011;5262;59.958;17.726;2022-12-18T03:52:01;16.80;;;9.90;;
10430;SDS011;5262;59.958;17.726;2022-12-18T03:54:02;22.67;;;11.03;;
10430;SDS011;5262;59.958;17.726;2022-12-18T03:56:31;19.80;;;10.93;;
10430;SDS011;5262;59.958;17.726;2022-12-18T03:59:07;20.43;;;10.50;;
10430;SDS011;5262;59.958;17.726;2022-12-18T04:01:35;18.37;;;10.83;;
10430;SDS011;5262;59.958;17.726;2022-12-18T04:04:10;17.30;;;10.33;;
10430;SDS011;5262;59.958;17.726;2022-12-18T04:06:39;18.70;;;9.70;;
10430;SDS011;5262;59.958;17.726;2022-12-18T04:09:07;20.33;;;10.33;;
10430;SDS011;5262;59.958;17.726;2022-12-18T04:11:33;21.43;;;10.53;;
10430;SDS011;5262;59.958;17.726;2022-12-18T04:13:58;17.30;;;9.47;;
10430;SDS011;5262;59.958;17.726;2022-12-18T04:16:25;18.43;;;10.07;;
10430;SDS011;5262;59.958;17.726;2022-12-18T04:18:52;19.13;;;10.53;;
10430;SDS011;5262;59.958;17.726;2022-12-18T04:21:18;20.77;;;10.77;;
10430;SDS011;5262;59.958;17.726;2022-12-18T04:23:44;20.30;;;10.40;;
10430;SDS011;5262;59.958;17.726;2022-12-18T04:26:10;19.07;;;10.37;;
10430;SDS011;5262;59.958;17.726;2022-12-18T04:28:36;16.90;;;9.97;;
10430;SDS011;5262;59.958;17.726;2022-12-18T04:31:01;24.40;;;10.90;;
10430;SDS011;5262;59.958;17.726;2022-12-18T04:33:27;16.70;;;9.80;;
10430;SDS011;5262;59.958;17.726;2022-12-18T04:35:53;16.73;;;10.83;;
10430;SDS011;5262;59.958;17.726;2022-12-18T04:38:18;19.40;;;10.23;;
10430;SDS011;5262;59.958;17.726;2022-12-18T04:40:44;18.93;;;9.50;;
10430;SDS011;5262;59.958;17.726;2022-12-18T04:43:10;16.60;;;9.63;;
10430;SDS011;5262;59.958;17.726;2022-12-18T04:45:35;18.70;;;10.07;;
10430;SDS011;5262;59.958;17.726;2022-12-18T04:48:01;15.97;;;10.30;;
10430;SDS011;5262;59.958;17.726;2022-12-18T04:50:28;15.70;;;9.83;;
10430;SDS011;5262;59.958;17.726;2022-12-18T04:52:54;16.67;;;9.50;;
10430;SDS011;5262;59.958;17.726;2022-12-18T04:55:19;22.07;;;11.17;;
10430;SDS011;5262;59.958;17.726;2022-12-18T04:57:45;18.20;;;10.07;;
10430;SDS011;5262;59.958;17.726;2022-12-18T05:00:11;21.83;;;10.27;;
10430;SDS011;5262;59.958;17.726;2022-12-18T05:02:37;18.43;;;10.00;;
10430;SDS011;5262;59.958;17.726;2022-12-18T05:05:03;20.73;;;9.50;;
10430;SDS011;5262;59.958;17.726;2022-12-18T05:07:29;20.33;;;10.70;;
10430;SDS011;5262;59.958;17.726;2022-12-18T05:09:55;17.60;;;9.10;;
10430;SDS011;5262;59.958;17.726;2022-12-18T05:12:21;16.90;;;8.83;;
10430;SDS011;5262;59.958;17.726;2022-12-18T05:14:46;16.47;;;9.80;;
10430;SDS011;5262;59.958;17.726;2022-12-18T05:17:12;15.30;;;8.70;;
10430;SDS011;5262;59.958;17.726;2022-12-18T05:19:37;17.40;;;9.73;;
10430;SDS011;5262;59.958;17.726;2022-12-18T05:22:03;19.50;;;9.07;;
10430;SDS011;5262;59.958;17.726;2022-12-18T05:24:29;20.53;;;9.10;;
10430;SDS011;5262;59.958;17.726;2022-12-18T05:26:54;17.33;;;9.23;;
10430;SDS011;5262;59.958;17.726;2022-12-18T05:29:20;15.77;;;8.43;;
10430;SDS011;5262;59.958;17.726;2022-12-18T05:31:46;17.40;;;9.63;;
10430;SDS011;5262;59.958;17.726;2022-12-18T05:34:11;15.00;;;9.27;;
10430;SDS011;5262;59.958;17.726;2022-12-18T05:36:37;15.40;;;8.97;;
10430;SDS011;5262;59.958;17.726;2022-12-18T05:39:02;15.67;;;9.47;;
10430;SDS011;5262;59.958;17.726;2022-12-18T05:41:28;18.17;;;8.97;;
10430;SDS011;5262;59.958;17.726;2022-12-18T05:43:54;17.70;;;8.97;;
10430;SDS011;5262;59.958;17.726;2022-12-18T05:46:20;16.67;;;9.27;;
10430;SDS011;5262;59.958;17.726;2022-12-18T05:48:45;14.13;;;8.00;;
10430;SDS011;5262;59.958;17.726;2022-12-18T05:51:15;18.07;;;9.57;;
10430;SDS011;5262;59.958;17.726;2022-12-18T05:53:41;16.40;;;9.57;;
10430;SDS011;5262;59.958;17.726;2022-12-18T05:56:12;14.50;;;8.40;;
10430;SDS011;5262;59.958;17.726;2022-12-18T05:58:40;17.37;;;9.37;;
10430;SDS011;5262;59.958;17.726;2022-12-18T06:01:16;17.43;;;8.73;;
10430;SDS011;5262;59.958;17.726;2022-12-18T06:03:43;14.27;;;8.80;;
10430;SDS011;5262;59.958;17.726;2022-12-18T06:06:16;14.23;;;9.03;;
10430;SDS011;5262;59.958;17.726;2022-12-18T06:08:44;17.67;;;9.47;;
10430;SDS011;5262;59.958;17.726;2022-12-18T06:11:10;16.10;;;8.50;;
10430;SDS011;5262;59.958;17.726;2022-12-18T06:13:36;16.40;;;9.50;;
10430;SDS011;5262;59.958;17.726;2022-12-18T06:16:05;17.30;;;10.10;;
10430;SDS011;5262;59.958;17.726;2022-12-18T06:18:32;15.90;;;9.23;;
10430;SDS011;5262;59.958;17.726;2022-12-18T06:20:58;15.13;;;9.40;;
10430;SDS011;5262;59.958;17.726;2022-12-18T06:23:24;16.53;;;9.37;;
10430;SDS011;5262;59.958;17.726;2022-12-18T06:25:50;15.63;;;8.70;;
10430;SDS011;5262;59.958;17.726;2022-12-18T06:28:16;15.73;;;9.37;;
10430;SDS011;5262;59.958;17.726;2022-12-18T06:30:45;17.20;;;9.37;;
10430;SDS011;5262;59.958;17.726;2022-12-18T06:33:13;14.90;;;9.27;;
10430;SDS011;5262;59.958;17.726;2022-12-18T06:35:39;18.67;;;9.57;;
10430;SDS011;5262;59.958;17.726;2022-12-18T06:38:05;20.20;;;9.47;;
10430;SDS011;5262;59.958;17.726;2022-12-18T06:40:30;19.13;;;8.97;;
10430;SDS011;5262;59.958;17.726;2022-12-18T06:42:56;18.90;;;9.70;;
10430;SDS011;5262;59.958;17.726;2022-12-18T06:45:22;20.43;;;9.73;;
10430;SDS011;5262;59.958;17.726;2022-12-18T06:47:48;16.57;;;9.00;;
10430;SDS011;5262;59.958;17.726;2022-12-18T06:50:13;16.70;;;9.40;;
10430;SDS011;5262;59.958;17.726;2022-12-18T06:52:39;13.67;;;8.63;;
10430;SDS011;5262;59.958;17.726;2022-12-18T06:55:06;15.83;;;8.33;;
10430;SDS011;5262;59.958;17.726;2022-12-18T06:57:35;12.37;;;8.23;;
10430;SDS011;5262;59.958;17.726;2022-12-18T07:00:02;14.00;;;8.40;;
10430;SDS011;5262;59.958;17.726;2022-12-18T07:02:28;17.73;;;7.90;;
10430;SDS011;5262;59.958;17.726;2022-12-18T07:04:54;16.37;;;9.10;;
10430;SDS011;5262;59.958;17.726;2022-12-18T07:07:20;12.37;;;8.30;;
10430;SDS011;5262;59.958;17.726;2022-12-18T07:09:45;18.83;;;9.37;;
10430;SDS011;5262;59.958;17.726;2022-12-18T07:12:11;13.43;;;8.57;;
10430;SDS011;5262;59.958;17.726;2022-12-18T07:14:36;15.10;;;8.90;;
10430;SDS011;5262;59.958;17.726;2022-12-18T07:17:02;13.77;;;9.13;;
10430;SDS011;5262;59.958;17.726;2022-12-18T07:19:28;17.13;;;8.50;;
10430;SDS011;5262;59.958;17.726;2022-12-18T07:21:54;17.30;;;9.30;;
10430;SDS011;5262;59.958;17.726;2022-12-18T07:24:20;16.33;;;9.30;;
10430;SDS011;5262;59.958;17.726;2022-12-18T07:26:46;15.30;;;8.50;;
10430;SDS011;5262;59.958;17.726;2022-12-18T07:29:11;15.43;;;8.63;;
10430;SDS011;5262;59.958;17.726;2022-12-18T07:31:37;14.63;;;8.07;;
10430;SDS011;5262;59.958;17.726;2022-12-18T07:34:03;17.00;;;8.77;;
10430;SDS011;5262;59.958;17.726;2022-12-18T07:36:28;17.37;;;9.43;;
10430;SDS011;5262;59.958;17.726;2022-12-18T07:38:54;14.90;;;8.67;;
10430;SDS011;5262;59.958;17.726;2022-12-18T07:41:20;16.40;;;9.50;;
10430;SDS011;5262;59.958;17.726;2022-12-18T07:43:46;17.33;;;9.77;;
10430;SDS011;5262;59.958;17.726;2022-12-18T07:46:12;18.53;;;9.30;;
10430;SDS011;5262;59.958;17.726;2022-12-18T07:48:40;17.10;;;9.13;;
10430;SDS011;5262;59.958;17.726;2022-12-18T07:51:09;14.77;;;8.77;;
10430;SDS011;5262;59.958;17.726;2022-12-18T07:53:35;18.37;;;9.17;;
10430;SDS011;5262;59.958;17.726;2022-12-18T07:56:02;18.97;;;8.97;;
10430;SDS011;5262;59.958;17.726;2022-12-18T07:58:30;16.73;;;9.10;;
10430;SDS011;5262;59.958;17.726;2022-12-18T08:01:06;14.53;;;8.70;;
10430;SDS011;5262;59.958;17.726;2022-12-18T08:03:33;17.03;;;10.43;;
10430;SDS011;5262;59.958;17.726;2022-12-18T08:06:02;18.03;;;9.13;;
10430;SDS011;5262;59.958;17.726;2022-12-18T08:08:30;19.53;;;9.97;;
10430;SDS011;5262;59.958;17.726;2022-12-18T08:10:56;17.60;;;9.03;;
10430;SDS011;5262;59.958;17.726;2022-12-18T08:13:22;17.83;;;9.53;;
10430;SDS011;5262;59.958;17.726;2022-12-18T08:15:55;15.60;;;9.60;;
10430;SDS011;5262;59.958;17.726;2022-12-18T08:18:29;19.33;;;10.13;;
10430;SDS011;5262;59.958;17.726;2022-12-18T08:21:06;18.27;;;10.33;;
10430;SDS011;5262;59.958;17.726;2022-12-18T08:23:38;14.90;;;9.80;;
10430;SDS011;5262;59.958;17.726;2022-12-18T08:26:04;15.97;;;9.47;;
10430;SDS011;5262;59.958;17.726;2022-12-18T08:28:30;15.17;;;9.60;;
10430;SDS011;5262;59.958;17.726;2022-12-18T08:30:56;15.77;;;9.00;;
10430;SDS011;5262;59.958;17.726;2022-12-18T08:33:22;16.90;;;9.73;;
10430;SDS011;5262;59.958;17.726;2022-12-18T08:35:48;19.00;;;10.47;;
10430;SDS011;5262;59.958;17.726;2022-12-18T08:38:14;22.97;;;10.83;;
10430;SDS011;5262;59.958;17.726;2022-12-18T08:40:39;15.77;;;9.30;;
10430;SDS011;5262;59.958;17.726;2022-12-18T08:43:05;17.23;;;9.93;;
10430;SDS011;5262;59.958;17.726;2022-12-18T08:45:51;17.27;;;9.70;;
10430;SDS011;5262;59.958;17.726;2022-12-18T08:48:16;17.47;;;9.90;;
10430;SDS011;5262;59.958;17.726;2022-12-18T08:50:42;18.43;;;10.60;;
10430;SDS011;5262;59.958;17.726;2022-12-18T08:53:08;15.07;;;9.30;;
10430;SDS011;5262;59.958;17.726;2022-12-18T08:55:34;16.40;;;9.77;;
10430;SDS011;5262;59.958;17.726;2022-12-18T08:58:00;17.53;;;9.73;;
10430;SDS011;5262;59.958;17.726;2022-12-18T09:00:25;13.07;;;8.67;;
10430;SDS011;5262;59.958;17.726;2022-12-18T09:02:51;16.07;;;8.90;;
10430;SDS011;5262;59.958;17.726;2022-12-18T09:05:17;20.77;;;10.43;;
10430;SDS011;5262;59.958;17.726;2022-12-18T09:07:42;15.23;;;9.57;;
10430;SDS011;5262;59.958;17.726;2022-12-18T09:10:08;15.20;;;9.43;;
10430;SDS011;5262;59.958;17.726;2022-12-18T09:12:34;20.50;;;10.30;;
10430;SDS011;5262;59.958;17.726;2022-12-18T09:14:59;14.27;;;8.87;;
10430;SDS011;5262;59.958;17.726;2022-12-18T09:17:25;20.97;;;10.57;;
10430;SDS011;5262;59.958;17.726;2022-12-18T09:19:51;15.97;;;9.40;;
10430;SDS011;5262;59.958;17.726;2022-12-18T09:22:16;15.00;;;9.20;;
10430;SDS011;5262;59.958;17.726;2022-12-18T09:24:42;17.70;;;9.90;;
10430;SDS011;5262;59.958;17.726;2022-12-18T09:27:07;15.83;;;9.53;;
10430;SDS011;5262;59.958;17.726;2022-12-18T09:29:33;15.73;;;9.53;;
10430;SDS011;5262;59.958;17.726;2022-12-18T09:31:59;19.20;;;9.77;;
10430;SDS011;5262;59.958;17.726;2022-12-18T09:34:24;16.20;;;10.20;;
10430;SDS011;5262;59.958;17.726;2022-12-18T09:36:50;15.70;;;9.63;;
10430;SDS011;5262;59.958;17.726;2022-12-18T09:39:16;18.73;;;10.93;;
10430;SDS011;5262;59.958;17.726;2022-12-18T09:46:58;22.90;;;10.10;;
10430;SDS011;5262;59.958;17.726;2022-12-18T09:49:29;18.23;;;9.80;;
10430;SDS011;5262;59.958;17.726;2022-12-18T09:52:05;18.43;;;9.93;;
10430;SDS011;5262;59.958;17.726;2022-12-18T09:54:40;16.83;;;10.00;;
10430;SDS011;5262;59.958;17.726;2022-12-18T09:57:13;17.13;;;9.90;;
10430;SDS011;5262;59.958;17.726;2022-12-18T09:59:46;20.13;;;11.10;;
10430;SDS011;5262;59.958;17.726;2022-12-18T10:02:20;17.33;;;9.63;;
10430;SDS011;5262;59.958;17.726;2022-12-18T10:04:53;17.93;;;10.33;;
10430;SDS011;5262;59.958;17.726;2022-12-18T10:07:40;15.20;;;9.30;;
10430;SDS011;5262;59.958;17.726;2022-12-18T10:10:22;18.27;;;9.90;;
10430;SDS011;5262;59.958;17.726;2022-12-18T10:13:00;21.17;;;9.43;;
10430;SDS011;5262;59.958;17.726;2022-12-18T10:15:53;15.10;;;9.47;;
10430;SDS011;5262;59.958;17.726;2022-12-18T10:21:32;13.90;;;8.97;;
10430;SDS011;5262;59.958;17.726;2022-12-18T10:24:40;14.27;;;9.07;;
10430;SDS011;5262;59.958;17.726;2022-12-18T10:26:59;15.93;;;9.10;;
10430;SDS011;5262;59.958;17.726;2022-12-18T10:29:43;17.13;;;8.90;;
10430;SDS011;5262;59.958;17.726;2022-12-18T10:32:18;16.60;;;9.47;;
10430;SDS011;5262;59.958;17.726;2022-12-18T10:34:46;18.47;;;8.67;;
10430;SDS011;5262;59.958;17.726;2022-12-18T10:37:21;13.80;;;9.13;;
10430;SDS011;5262;59.958;17.726;2022-12-18T10:42:36;16.87;;;9.83;;
10430;SDS011;5262;59.958;17.726;2022-12-18T10:45:09;15.90;;;9.40;;
10430;SDS011;5262;59.958;17.726;2022-12-18T10:47:41;14.13;;;8.97;;
10430;SDS011;5262;59.958;17.726;2022-12-18T10:50:33;14.57;;;9.40;;
10430;SDS011;5262;59.958;17.726;2022-12-18T10:52:59;15.97;;;9.70;;
10430;SDS011;5262;59.958;17.726;2022-12-18T10:55:37;14.80;;;9.70;;
10430;SDS011;5262;59.958;17.726;2022-12-18T10:58:21;13.10;;;9.07;;
10430;SDS011;5262;59.958;17.726;2022-12-18T11:01:04;19.10;;;9.20;;
10430;SDS011;5262;59.958;17.726;2022-12-18T11:03:37;16.87;;;9.17;;
10430;SDS011;5262;59.958;17.726;2022-12-18T11:06:09;19.10;;;9.73;;
10430;SDS011;5262;59.958;17.726;2022-12-18T11:08:40;14.70;;;8.23;;
10430;SDS011;5262;59.958;17.726;2022-12-18T11:11:29;15.10;;;8.60;;
10430;SDS011;5262;59.958;17.726;2022-12-18T11:13:58;13.07;;;9.17;;
10430;SDS011;5262;59.958;17.726;2022-12-18T11:16:25;15.10;;;8.57;;
10430;SDS011;5262;59.958;17.726;2022-12-18T11:18:52;13.90;;;9.20;;
10430;SDS011;5262;59.958;17.726;2022-12-18T11:21:17;16.93;;;8.47;;
10430;SDS011;5262;59.958;17.726;2022-12-18T11:23:53;15.60;;;8.90;;
10430;SDS011;5262;59.958;17.726;2022-12-18T11:26:19;17.57;;;9.73;;
10430;SDS011;5262;59.958;17.726;2022-12-18T11:28:52;12.70;;;8.50;;
10430;SDS011;5262;59.958;17.726;2022-12-18T11:31:32;13.67;;;8.07;;
10430;SDS011;5262;59.958;17.726;2022-12-18T11:34:19;11.17;;;8.70;;
10430;SDS011;5262;59.958;17.726;2022-12-18T11:36:51;15.00;;;8.63;;
10430;SDS011;5262;59.958;17.726;2022-12-18T11:39:24;12.47;;;7.90;;
10430;SDS011;5262;59.958;17.726;2022-12-18T11:41:57;15.53;;;8.47;;
10430;SDS011;5262;59.958;17.726;2022-12-18T11:50:12;13.73;;;7.37;;
10430;SDS011;5262;59.958;17.726;2022-12-18T11:52:41;13.10;;;7.83;;
10430;SDS011;5262;59.958;17.726;2022-12-18T11:55:10;14.27;;;8.03;;
10430;SDS011;5262;59.958;17.726;2022-12-18T12:00:50;14.50;;;6.70;;
10430;SDS011;5262;59.958;17.726;2022-12-18T12:12:15;15.10;;;7.13;;
10430;SDS011;5262;59.958;17.726;2022-12-18T12:20:46;17.60;;;8.43;;
10430;SDS011;5262;59.958;17.726;2022-12-18T12:26:40;13.03;;;6.03;;
10430;SDS011;5262;59.958;17.726;2022-12-18T12:32:27;14.73;;;5.70;;
10430;SDS011;5262;59.958;17.726;2022-12-18T12:40:20;12.23;;;5.90;;
10430;SDS011;5262;59.958;17.726;2022-12-18T12:42:53;12.07;;;5.40;;
10430;SDS011;5262;59.958;17.726;2022-12-18T12:45:58;12.97;;;4.97;;
10430;SDS011;5262;59.958;17.726;2022-12-18T12:48:42;14.47;;;6.33;;
10430;SDS011;5262;59.958;17.726;2022-12-18T12:51:15;12.33;;;5.53;;
10430;SDS011;5262;59.958;17.726;2022-12-18T12:53:46;19.43;;;9.57;;
10430;SDS011;5262;59.958;17.726;2022-12-18T12:56:13;18.17;;;9.07;;
10430;SDS011;5262;59.958;17.726;2022-12-18T12:58:44;13.73;;;6.73;;
10430;SDS011;5262;59.958;17.726;2022-12-18T13:03:52;13.03;;;6.70;;
10430;SDS011;5262;59.958;17.726;2022-12-18T13:06:45;10.27;;;4.80;;
10430;SDS011;5262;59.958;17.726;2022-12-18T13:09:18;8.77;;;4.17;;
10430;SDS011;5262;59.958;17.726;2022-12-18T13:11:44;14.50;;;4.33;;
10430;SDS011;5262;59.958;17.726;2022-12-18T13:14:30;13.17;;;5.00;;
10430;SDS011;5262;59.958;17.726;2022-12-18T13:20:06;7.73;;;3.27;;
10430;SDS011;5262;59.958;17.726;2022-12-18T13:22:36;14.03;;;5.27;;
10430;SDS011;5262;59.958;17.726;2022-12-18T13:33:30;10.17;;;3.50;;
10430;SDS011;5262;59.958;17.726;2022-12-18T13:36:09;9.83;;;4.67;;
10430;SDS011;5262;59.958;17.726;2022-12-18T13:41:39;10.77;;;3.07;;
10430;SDS011;5262;59.958;17.726;2022-12-18T13:44:13;9.37;;;2.60;;
10430;SDS011;5262;59.958;17.726;2022-12-18T13:46:58;8.83;;;2.37;;
10430;SDS011;5262;59.958;17.726;2022-12-18T13:52:02;7.63;;;2.30;;
10430;SDS011;5262;59.958;17.726;2022-12-18T13:54:40;10.23;;;2.43;;
10430;SDS011;5262;59.958;17.726;2022-12-18T13:59:56;6.13;;;2.40;;
10430;SDS011;5262;59.958;17.726;2022-12-18T14:02:23;6.30;;;2.57;;
10430;SDS011;5262;59.958;17.726;2022-12-18T14:04:50;7.47;;;2.00;;
10430;SDS011;5262;59.958;17.726;2022-12-18T14:07:18;7.17;;;2.40;;
10430;SDS011;5262;59.958;17.726;2022-12-18T14:09:49;7.80;;;2.20;;
10430;SDS011;5262;59.958;17.726;2022-12-18T14:12:32;5.53;;;2.20;;
10430;SDS011;5262;59.958;17.726;2022-12-18T14:18:02;5.70;;;3.00;;
10430;SDS011;5262;59.958;17.726;2022-12-18T14:20:44;6.97;;;1.73;;
10430;SDS011;5262;59.958;17.726;2022-12-18T14:23:26;6.53;;;2.10;;
10430;SDS011;5262;59.958;17.726;2022-12-18T14:25:52;7.73;;;2.53;;
10430;SDS011;5262;59.958;17.726;2022-12-18T14:28:18;4.10;;;1.97;;
10430;SDS011;5262;59.958;17.726;2022-12-18T14:30:44;5.43;;;1.53;;
10430;SDS011;5262;59.958;17.726;2022-12-18T14:33:15;3.67;;;1.63;;
10430;SDS011;5262;59.958;17.726;2022-12-18T14:40:57;14.27;;;5.80;;
10430;SDS011;5262;59.958;17.726;2022-12-18T14:43:28;6.43;;;1.97;;
10430;SDS011;5262;59.958;17.726;2022-12-18T14:45:59;6.17;;;3.10;;
10430;SDS011;5262;59.958;17.726;2022-12-18T14:51:14;9.53;;;2.63;;
10430;SDS011;5262;59.958;17.726;2022-12-18T14:53:43;6.83;;;1.70;;
10430;SDS011;5262;59.958;17.726;2022-12-18T14:56:20;5.33;;;1.90;;
10430;SDS011;5262;59.958;17.726;2022-12-18T14:58:49;8.80;;;1.93;;
10430;SDS011;5262;59.958;17.726;2022-12-18T15:01:19;5.80;;;1.83;;
10430;SDS011;5262;59.958;17.726;2022-12-18T15:03:47;4.50;;;1.50;;
10430;SDS011;5262;59.958;17.726;2022-12-18T15:08:53;5.43;;;1.67;;
10430;SDS011;5262;59.958;17.726;2022-12-18T15:12:02;5.97;;;2.07;;
10430;SDS011;5262;59.958;17.726;2022-12-18T15:14:23;4.20;;;2.00;;
10430;SDS011;5262;59.958;17.726;2022-12-18T15:16:56;8.60;;;1.87;;
10430;SDS011;5262;59.958;17.726;2022-12-18T15:19:26;9.97;;;1.97;;
10430;SDS011;5262;59.958;17.726;2022-12-18T15:21:59;8.70;;;1.97;;
10430;SDS011;5262;59.958;17.726;2022-12-18T15:24:27;7.90;;;1.63;;
10430;SDS011;5262;59.958;17.726;2022-12-18T15:26:57;9.73;;;1.80;;
10430;SDS011;5262;59.958;17.726;2022-12-18T15:29:23;6.87;;;1.97;;
10430;SDS011;5262;59.958;17.726;2022-12-18T15:34:26;4.80;;;1.43;;
10430;SDS011;5262;59.958;17.726;2022-12-18T15:36:52;3.40;;;1.60;;
10430;SDS011;5262;59.958;17.726;2022-12-18T15:39:18;8.30;;;1.90;;
10430;SDS011;5262;59.958;17.726;2022-12-18T15:41:44;6.00;;;1.50;;
10430;SDS011;5262;59.958;17.726;2022-12-18T15:44:29;6.57;;;1.60;;
10430;SDS011;5262;59.958;17.726;2022-12-18T15:46:55;6.30;;;1.83;;
10430;SDS011;5262;59.958;17.726;2022-12-18T15:49:22;6.43;;;1.80;;
10430;SDS011;5262;59.958;17.726;2022-12-18T15:51:49;9.63;;;2.00;;
10430;SDS011;5262;59.958;17.726;2022-12-18T15:54:18;12.17;;;2.27;;
10430;SDS011;5262;59.958;17.726;2022-12-18T15:57:04;4.30;;;1.27;;
10430;SDS011;5262;59.958;17.726;2022-12-18T15:59:47;7.83;;;1.80;;
10430;SDS011;5262;59.958;17.726;2022-12-18T16:02:14;4.77;;;1.40;;
10430;SDS011;5262;59.958;17.726;2022-12-18T16:04:42;5.33;;;1.60;;
10430;SDS011;5262;59.958;17.726;2022-12-18T16:07:08;6.20;;;1.60;;
10430;SDS011;5262;59.958;17.726;2022-12-18T16:09:34;6.57;;;1.40;;
10430;SDS011;5262;59.958;17.726;2022-12-18T16:12:00;10.10;;;2.00;;
10430;SDS011;5262;59.958;17.726;2022-12-18T16:14:27;7.20;;;1.73;;
10430;SDS011;5262;59.958;17.726;2022-12-18T16:17:01;11.43;;;2.20;;
10430;SDS011;5262;59.958;17.726;2022-12-18T16:19:30;9.17;;;1.83;;
10430;SDS011;5262;59.958;17.726;2022-12-18T16:21:56;7.20;;;1.50;;
10430;SDS011;5262;59.958;17.726;2022-12-18T16:24:32;6.67;;;1.70;;
10430;SDS011;5262;59.958;17.726;2022-12-18T16:27:01;7.60;;;1.70;;
10430;SDS011;5262;59.958;17.726;2022-12-18T16:29:27;7.07;;;1.63;;
10430;SDS011;5262;59.958;17.726;2022-12-18T16:31:57;5.70;;;1.63;;
10430;SDS011;5262;59.958;17.726;2022-12-18T16:34:24;4.30;;;1.50;;
10430;SDS011;5262;59.958;17.726;2022-12-18T16:36:53;3.83;;;1.70;;